createdAt,value
2022-12-28T00:00:41.658Z,10.50
2022-12-28T00:05:43.764Z,10.50
2022-12-28T00:11:08.151Z,10.50
2022-12-28T00:16:10.413Z,10.50
2022-12-28T00:21:12.562Z,10.50
2022-12-28T00:26:14.689Z,10.50
2022-12-28T00:31:17.199Z,10.50
2022-12-28T00:36:19.330Z,10.60
2022-12-28T00:41:21.466Z,10.70
2022-12-28T00:46:23.619Z,10.70
2022-12-28T00:51:25.760Z,10.80
2022-12-28T00:56:27.990Z,10.90
2022-12-28T01:01:30.493Z,10.90
2022-12-28T01:06:33.023Z,10.90
2022-12-28T01:11:35.114Z,10.90
2022-12-28T01:16:37.765Z,10.90
2022-12-28T01:21:40.088Z,10.90
2022-12-28T01:26:42.559Z,10.90
2022-12-28T01:31:44.736Z,11.00
2022-12-28T01:36:48.251Z,10.90
2022-12-28T01:41:50.400Z,10.90
2022-12-28T01:47:05.586Z,10.90
2022-12-28T01:52:17.987Z,10.90
2022-12-28T01:57:25.768Z,10.90
2022-12-28T02:02:30.028Z,11.00
2022-12-28T02:07:55.826Z,10.90
2022-12-28T02:13:00.504Z,10.90
2022-12-28T02:18:03.267Z,10.90
2022-12-28T02:23:17.349Z,10.80
2022-12-28T02:28:19.471Z,10.80
2022-12-28T02:33:30.542Z,10.70
2022-12-28T02:38:44.907Z,10.70
2022-12-28T02:43:47.545Z,10.70
2022-12-28T02:49:08.119Z,10.70
2022-12-28T02:54:40.977Z,10.60
2022-12-28T02:59:53.157Z,10.60
2022-12-28T03:05:18.469Z,10.60
2022-12-28T03:10:29.348Z,10.60
2022-12-28T03:15:37.918Z,10.70
2022-12-28T03:20:59.637Z,10.70
2022-12-28T03:26:23.398Z,10.60
2022-12-28T03:31:29.369Z,10.60
2022-12-28T03:36:59.440Z,10.60
2022-12-28T03:42:30.472Z,10.60
2022-12-28T03:47:35.514Z,10.60
2022-12-28T03:52:37.864Z,10.60
2022-12-28T03:57:42.058Z,10.60
2022-12-28T04:02:50.772Z,10.60
2022-12-28T04:07:54.239Z,10.70
2022-12-28T04:12:57.117Z,10.70
2022-12-28T04:18:22.258Z,10.70
2022-12-28T04:23:24.978Z,10.70
2022-12-28T04:28:39.081Z,10.70
2022-12-28T04:33:56.712Z,10.70
2022-12-28T04:38:59.674Z,10.60
2022-12-28T04:44:02.119Z,10.60
2022-12-28T04:49:04.429Z,10.50
2022-12-28T04:54:11.756Z,10.50
2022-12-28T04:59:13.879Z,10.50
2022-12-28T05:04:16.005Z,10.50
2022-12-28T05:09:19.526Z,10.40
2022-12-28T05:14:21.840Z,10.40
2022-12-28T05:19:23.932Z,10.40
2022-12-28T05:24:26.088Z,10.50
2022-12-28T05:29:28.327Z,10.40
2022-12-28T05:34:30.559Z,10.40
2022-12-28T05:39:33.137Z,10.40
2022-12-28T05:44:35.252Z,10.40
2022-12-28T05:49:37.454Z,10.40
2022-12-28T05:54:39.648Z,10.40
2022-12-28T05:59:41.894Z,10.40
2022-12-28T06:04:44.024Z,10.40
2022-12-28T06:09:46.371Z,10.40
2022-12-28T06:14:48.589Z,10.40
2022-12-28T06:19:50.747Z,10.30
2022-12-28T06:24:52.831Z,10.30
2022-12-28T06:29:55.276Z,10.30
2022-12-28T06:34:57.600Z,10.30
2022-12-28T06:40:00.880Z,10.20
2022-12-28T06:45:03.224Z,10.20
2022-12-28T06:50:05.615Z,10.10
2022-12-28T06:55:08.017Z,10.10
2022-12-28T07:00:10.953Z,10.10
2022-12-28T07:05:14.201Z,10.10
2022-12-28T07:10:16.422Z,10.10
2022-12-28T07:15:18.475Z,10.10
2022-12-28T07:20:20.946Z,10.10
2022-12-28T07:25:23.753Z,10.00
2022-12-28T07:30:26.393Z,10.00
2022-12-28T07:35:28.608Z,10.00
2022-12-28T07:40:30.767Z,10.00
2022-12-28T07:45:33.213Z,10.00
2022-12-28T07:50:38.028Z,10.00
2022-12-28T07:55:40.653Z,10.00
2022-12-28T08:00:42.812Z,10.00
2022-12-28T08:05:45.180Z,10.00
2022-12-28T08:10:47.476Z,10.00
2022-12-28T08:15:56.049Z,10.10
2022-12-28T08:21:26.696Z,10.10
2022-12-28T08:26:32.513Z,10.10
2022-12-28T08:31:40.736Z,10.10
2022-12-28T08:36:43.165Z,10.10
2022-12-28T08:41:45.393Z,10.10
2022-12-28T08:46:47.836Z,10.10
2022-12-28T08:51:50.126Z,10.20
2022-12-28T08:56:53.901Z,10.20
2022-12-28T09:01:56.234Z,10.40
2022-12-28T09:06:58.453Z,10.40
2022-12-28T09:12:00.607Z,10.50
2022-12-28T09:17:03.906Z,10.60
2022-12-28T09:22:06.175Z,10.60
2022-12-28T09:27:08.705Z,10.70
2022-12-28T09:32:11.371Z,10.70
2022-12-28T09:37:13.513Z,10.80
2022-12-28T09:42:18.483Z,10.80
2022-12-28T09:47:35.254Z,10.80
2022-12-28T09:52:53.932Z,10.80
2022-12-28T09:57:57.687Z,10.90
2022-12-28T10:03:03.498Z,10.90
2022-12-28T10:08:05.700Z,10.90
2022-12-28T10:18:49.510Z,10.90
2022-12-28T10:24:29.882Z,10.90
2022-12-28T10:29:24.114Z,11.00
2022-12-28T10:34:33.475Z,11.00
2022-12-28T10:39:36.883Z,11.00
2022-12-28T10:44:41.239Z,11.10
2022-12-28T10:50:10.495Z,11.10
2022-12-28T10:55:28.398Z,11.20
2022-12-28T11:00:30.657Z,11.20
2022-12-28T11:05:32.795Z,11.30
2022-12-28T11:10:35.207Z,11.30
2022-12-28T11:15:37.422Z,11.30
2022-12-28T11:20:44.847Z,11.30
2022-12-28T11:25:47.617Z,11.30
2022-12-28T11:30:51.281Z,11.40
2022-12-28T11:35:59.620Z,11.40
2022-12-28T11:41:02.042Z,11.50
2022-12-28T11:46:20.439Z,11.50
2022-12-28T11:51:28.670Z,11.60
2022-12-28T11:56:39.924Z,11.60
2022-12-28T12:01:43.406Z,11.70
2022-12-28T12:07:05.610Z,11.70
2022-12-28T12:12:17.816Z,11.80
2022-12-28T12:17:44.955Z,11.80
2022-12-28T12:23:17.716Z,11.80
2022-12-28T12:28:45.320Z,11.80
2022-12-28T12:33:51.040Z,11.90
2022-12-28T12:39:03.338Z,11.90
2022-12-28T12:44:23.852Z,11.90
2022-12-28T12:49:47.333Z,12.00
2022-12-28T12:55:10.645Z,12.00
2022-12-28T13:00:22.112Z,12.00
2022-12-28T13:05:27.147Z,12.10
2022-12-28T13:10:34.151Z,12.10
2022-12-28T13:15:37.340Z,12.10
2022-12-28T13:20:39.501Z,12.10
2022-12-28T13:25:46.932Z,12.20
2022-12-28T13:31:15.907Z,12.20
2022-12-28T13:36:19.607Z,12.30
2022-12-28T13:41:25.962Z,12.30
2022-12-28T13:46:29.374Z,12.40
2022-12-28T13:51:32.408Z,12.40
2022-12-28T13:56:38.510Z,12.40
2022-12-28T14:01:43.913Z,12.60
2022-12-28T14:06:46.717Z,12.70
2022-12-28T14:11:49.482Z,12.70
2022-12-28T14:16:51.775Z,12.70
2022-12-28T14:21:53.880Z,12.50
2022-12-28T14:26:58.296Z,12.60
2022-12-28T14:32:07.347Z,12.70
2022-12-28T14:37:33.389Z,12.70
2022-12-28T14:42:35.958Z,12.70
2022-12-28T14:47:45.854Z,12.80
2022-12-28T14:52:49.779Z,12.60
2022-12-28T14:57:59.871Z,12.50
2022-12-28T15:03:20.459Z,12.40
2022-12-28T15:08:27.301Z,12.40
2022-12-28T15:13:29.376Z,12.30
2022-12-28T15:18:31.661Z,12.20
2022-12-28T15:23:33.771Z,12.20
2022-12-28T15:28:36.189Z,12.10
2022-12-28T15:33:38.305Z,12.10
2022-12-28T15:38:40.570Z,12.00
2022-12-28T15:43:42.618Z,12.00
2022-12-28T15:48:47.744Z,12.00
2022-12-28T15:53:50.152Z,11.80
2022-12-28T15:58:57.599Z,11.70
2022-12-28T16:04:02.083Z,11.60
2022-12-28T16:09:04.795Z,11.50
2022-12-28T16:14:08.973Z,11.40
2022-12-28T16:19:14.024Z,11.20
2022-12-28T16:24:17.057Z,11.10
2022-12-28T16:29:19.266Z,11.00
2022-12-28T16:34:21.384Z,11.00
2022-12-28T16:39:23.506Z,11.00
2022-12-28T16:44:28.019Z,11.00
2022-12-28T16:49:30.140Z,11.10
2022-12-28T16:54:32.220Z,11.10
2022-12-28T16:59:35.431Z,11.20
2022-12-28T17:04:37.586Z,11.40
2022-12-28T17:09:44.059Z,11.40
2022-12-28T17:14:48.745Z,11.40
2022-12-28T17:19:51.348Z,11.40
2022-12-28T17:24:53.475Z,11.20
2022-12-28T17:29:55.515Z,11.10
2022-12-28T17:34:57.604Z,10.90
2022-12-28T17:39:59.687Z,10.90
2022-12-28T17:45:06.081Z,10.90
2022-12-28T17:50:11.558Z,10.80
2022-12-28T17:55:13.654Z,10.80
2022-12-28T18:00:16.481Z,10.80
2022-12-28T18:05:18.675Z,10.80
2022-12-28T18:10:22.577Z,10.80
2022-12-28T18:15:29.790Z,10.80
2022-12-28T18:20:35.047Z,10.80
2022-12-28T18:25:37.639Z,10.80
2022-12-28T18:30:41.619Z,10.90
2022-12-28T18:35:43.807Z,10.80
2022-12-28T18:40:53.340Z,10.80
2022-12-28T18:45:57.734Z,10.60
2022-12-28T18:51:05.552Z,10.60
2022-12-28T18:56:14.401Z,10.60
2022-12-28T19:02:04.630Z,10.60
2022-12-28T19:06:42.115Z,10.70
2022-12-28T19:11:45.259Z,10.70
2022-12-28T19:16:47.449Z,10.70
2022-12-28T19:21:56.608Z,10.70
2022-12-28T19:27:01.002Z,10.70
2022-12-28T19:32:03.165Z,10.70
2022-12-28T19:37:05.273Z,10.60
2022-12-28T19:42:07.397Z,10.60
2022-12-28T19:47:09.592Z,10.70
2022-12-28T19:52:11.755Z,10.70
2022-12-28T19:57:13.902Z,10.70
2022-12-28T20:02:16.240Z,10.70
2022-12-28T20:07:19.541Z,10.60
2022-12-28T20:12:24.875Z,10.50
2022-12-28T20:17:26.964Z,10.40
2022-12-28T20:22:29.088Z,10.30
2022-12-28T20:27:31.436Z,10.30
2022-12-28T20:32:33.558Z,10.30
2022-12-28T20:37:35.784Z,10.20
2022-12-28T20:42:56.397Z,10.20
2022-12-28T20:47:58.454Z,10.20
2022-12-28T20:53:00.521Z,10.20
2022-12-28T20:58:02.641Z,10.20
2022-12-28T21:03:04.768Z,10.10
2022-12-28T21:08:07.003Z,10.00
2022-12-28T21:13:09.194Z,9.90
2022-12-28T21:18:11.594Z,9.80
2022-12-28T21:23:13.729Z,9.70
2022-12-28T21:28:16.069Z,9.70
2022-12-28T21:33:18.132Z,9.80
2022-12-28T21:38:20.265Z,9.80
2022-12-28T21:43:22.379Z,9.90
2022-12-28T21:48:24.642Z,9.90
2022-12-28T21:53:27.377Z,9.90
2022-12-28T21:58:29.472Z,10.00
2022-12-28T22:03:50.096Z,9.90
2022-12-28T22:09:10.629Z,9.90
2022-12-28T22:14:12.758Z,9.90
2022-12-28T22:19:14.841Z,9.90
2022-12-28T22:24:16.964Z,10.00
2022-12-28T22:29:19.199Z,9.90
2022-12-28T22:34:21.405Z,9.90
2022-12-28T22:39:23.466Z,9.90
2022-12-28T22:44:25.762Z,9.90
2022-12-28T22:49:27.813Z,9.90
2022-12-28T22:54:29.849Z,9.80
2022-12-28T22:59:31.886Z,9.80
2022-12-28T23:04:33.926Z,9.90
2022-12-28T23:09:36.608Z,9.90
2022-12-28T23:14:57.364Z,9.90
2022-12-28T23:20:18.059Z,9.80
2022-12-28T23:25:42.351Z,9.80
2022-12-28T23:30:47.876Z,9.70
2022-12-28T23:35:50.101Z,9.70
2022-12-28T23:41:12.131Z,9.70
2022-12-28T23:46:14.351Z,9.70
2022-12-28T23:51:18.094Z,9.70
2022-12-28T23:56:20.331Z,9.70
